sensor_id;sensor_type;location;lat;lon;timestamp;pressure;altitude;pressure_sealevel;temperature;humidity
28167;BME280;15455;53.376;-6.262;2023-01-29T00:00:25;102876.38;;;4.20;100.00
28167;BME280;15455;53.376;-6.262;2023-01-29T00:03:11;102861.66;;;4.18;100.00
28167;BME280;15455;53.376;-6.262;2023-01-29T00:05:56;102855.63;;;4.18;100.00
28167;BME280;15455;53.376;-6.262;2023-01-29T00:08:41;102857.25;;;4.16;100.00
28167;BME280;15455;53.376;-6.262;2023-01-29T00:11:27;102853.75;;;4.15;100.00
28167;BME280;15455;53.376;-6.262;2023-01-29T00:14:12;102853.75;;;4.15;100.00
28167;BME280;15455;53.376;-6.262;2023-01-29T00:16:58;102849.28;;;4.13;100.00
28167;BME280;15455;53.376;-6.262;2023-01-29T00:19:43;102855.38;;;4.13;100.00
28167;BME280;15455;53.376;-6.262;2023-01-29T00:22:29;102855.38;;;4.13;100.00
28167;BME280;15455;53.376;-6.262;2023-01-29T00:25:14;102846.69;;;4.13;100.00
28167;BME280;15455;53.376;-6.262;2023-01-29T00:28:00;102854.44;;;4.13;100.00
28167;BME280;15455;53.376;-6.262;2023-01-29T00:30:45;102848.41;;;4.12;100.00
28167;BME280;15455;53.376;-6.262;2023-01-29T00:33:30;102853.56;;;4.12;100.00
28167;BME280;15455;53.376;-6.262;2023-01-29T00:36:18;102862.28;;;4.14;100.00
28167;BME280;15455;53.376;-6.262;2023-01-29T00:39:04;102865.00;;;4.16;100.00
28167;BME280;15455;53.376;-6.262;2023-01-29T00:41:55;102863.38;;;4.18;100.00
28167;BME280;15455;53.376;-6.262;2023-01-29T00:45:00;102866.75;;;4.17;100.00
28167;BME280;15455;53.376;-6.262;2023-01-29T00:47:45;102863.38;;;4.18;100.00
28167;BME280;15455;53.376;-6.262;2023-01-29T00:50:31;102861.59;;;4.17;100.00
28167;BME280;15455;53.376;-6.262;2023-01-29T00:53:17;102856.41;;;4.17;100.00
28167;BME280;15455;53.376;-6.262;2023-01-29T00:56:02;102850.38;;;4.16;100.00
28167;BME280;15455;53.376;-6.262;2023-01-29T00:58:48;102852.06;;;4.16;100.00
28167;BME280;15455;53.376;-6.262;2023-01-29T01:01:33;102845.19;;;4.16;100.00
28167;BME280;15455;53.376;-6.262;2023-01-29T01:04:37;102842.69;;;4.18;100.00
28167;BME280;15455;53.376;-6.262;2023-01-29T01:07:22;102840.03;;;4.16;100.00
28167;BME280;15455;53.376;-6.262;2023-01-29T01:13:26;102833.16;;;4.17;100.00
28167;BME280;15455;53.376;-6.262;2023-01-29T01:16:14;102822.75;;;4.15;100.00
28167;BME280;15455;53.376;-6.262;2023-01-29T01:18:59;102835.66;;;4.15;100.00
28167;BME280;15455;53.376;-6.262;2023-01-29T01:21:45;102828.81;;;4.16;100.00
28167;BME280;15455;53.376;-6.262;2023-01-29T01:24:32;102831.41;;;4.16;100.00
28167;BME280;15455;53.376;-6.262;2023-01-29T01:27:17;102830.50;;;4.15;100.00
28167;BME280;15455;53.376;-6.262;2023-01-29T01:30:04;102824.44;;;4.15;100.00
28167;BME280;15455;53.376;-6.262;2023-01-29T01:32:51;102813.03;;;4.11;100.00
28167;BME280;15455;53.376;-6.262;2023-01-29T01:35:37;102809.31;;;4.06;100.00
28167;BME280;15455;53.376;-6.262;2023-01-29T01:38:22;102790.84;;;4.00;100.00
28167;BME280;15455;53.376;-6.262;2023-01-29T01:41:08;102795.66;;;3.94;100.00
28167;BME280;15455;53.376;-6.262;2023-01-29T01:43:57;102796.28;;;3.90;100.00
28167;BME280;15455;53.376;-6.262;2023-01-29T01:46:43;102789.53;;;3.92;100.00
28167;BME280;15455;53.376;-6.262;2023-01-29T01:49:28;102787.81;;;3.92;100.00
28167;BME280;15455;53.376;-6.262;2023-01-29T01:52:14;102784.34;;;3.92;100.00
28167;BME280;15455;53.376;-6.262;2023-01-29T01:55:02;102793.88;;;3.93;100.00
28167;BME280;15455;53.376;-6.262;2023-01-29T01:57:52;102783.75;;;3.96;100.00
28167;BME280;15455;53.376;-6.262;2023-01-29T02:00:39;102794.41;;;4.02;100.00
28167;BME280;15455;53.376;-6.262;2023-01-29T02:03:27;102793.72;;;4.05;100.00
28167;BME280;15455;53.376;-6.262;2023-01-29T02:06:34;102789.59;;;4.08;100.00
28167;BME280;15455;53.376;-6.262;2023-01-29T02:09:43;102788.00;;;4.10;100.00
28167;BME280;15455;53.376;-6.262;2023-01-29T02:12:31;102794.84;;;4.10;100.00
28167;BME280;15455;53.376;-6.262;2023-01-29T02:15:17;102794.75;;;4.08;100.00
28167;BME280;15455;53.376;-6.262;2023-01-29T02:18:02;102798.25;;;4.09;100.00
28167;BME280;15455;53.376;-6.262;2023-01-29T02:21:03;102798.25;;;4.09;100.00
28167;BME280;15455;53.376;-6.262;2023-01-29T02:33:04;102764.28;;;4.03;100.00
28167;BME280;15455;53.376;-6.262;2023-01-29T02:39:44;102751.28;;;4.01;100.00
28167;BME280;15455;53.376;-6.262;2023-01-29T02:42:39;102740.06;;;4.00;100.00
28167;BME280;15455;53.376;-6.262;2023-01-29T02:45:37;102736.59;;;4.00;100.00
28167;BME280;15455;53.376;-6.262;2023-01-29T02:48:32;102737.41;;;3.99;100.00
28167;BME280;15455;53.376;-6.262;2023-01-29T02:51:34;102730.63;;;4.01;100.00
28167;BME280;15455;53.376;-6.262;2023-01-29T02:54:58;102722.88;;;4.01;100.00
28167;BME280;15455;53.376;-6.262;2023-01-29T02:57:38;102727.25;;;4.02;100.00
28167;BME280;15455;53.376;-6.262;2023-01-29T03:00:28;102712.63;;;4.03;100.00
28167;BME280;15455;53.376;-6.262;2023-01-29T03:03:21;102710.13;;;4.04;100.00
28167;BME280;15455;53.376;-6.262;2023-01-29T03:06:16;102712.72;;;4.04;100.00
28167;BME280;15455;53.376;-6.262;2023-01-29T03:09:09;102713.44;;;4.02;100.00
28167;BME280;15455;53.376;-6.262;2023-01-29T03:12:01;102715.13;;;4.01;100.00
28167;BME280;15455;53.376;-6.262;2023-01-29T03:15:11;102712.44;;;3.99;100.00
28167;BME280;15455;53.376;-6.262;2023-01-29T03:18:17;102706.94;;;3.93;100.00
28167;BME280;15455;53.376;-6.262;2023-01-29T03:21:10;102706.78;;;3.90;100.00
28167;BME280;15455;53.376;-6.262;2023-01-29T03:27:52;102699.56;;;3.85;100.00
28167;BME280;15455;53.376;-6.262;2023-01-29T03:31:07;102697.69;;;3.82;100.00
28167;BME280;15455;53.376;-6.262;2023-01-29T03:34:22;102692.28;;;3.77;100.00
28167;BME280;15455;53.376;-6.262;2023-01-29T03:37:28;102693.88;;;3.75;100.00
28167;BME280;15455;53.376;-6.262;2023-01-29T03:40:17;102699.94;;;3.76;100.00
28167;BME280;15455;53.376;-6.262;2023-01-29T03:43:11;102687.91;;;3.76;100.00
28167;BME280;15455;53.376;-6.262;2023-01-29T03:46:07;102675.88;;;3.77;100.00
28167;BME280;15455;53.376;-6.262;2023-01-29T03:49:05;102673.28;;;3.77;100.00
28167;BME280;15455;53.376;-6.262;2023-01-29T03:58:14;102644.09;;;3.78;100.00
28167;BME280;15455;53.376;-6.262;2023-01-29T04:04:03;102634.56;;;3.77;100.00
28167;BME280;15455;53.376;-6.262;2023-01-29T04:06:56;102620.44;;;3.70;100.00
28167;BME280;15455;53.376;-6.262;2023-01-29T04:09:51;102617.97;;;3.57;100.00
28167;BME280;15455;53.376;-6.262;2023-01-29T04:13:00;102609.50;;;3.44;100.00
28167;BME280;15455;53.376;-6.262;2023-01-29T04:15:53;102604.63;;;3.34;100.00
28167;BME280;15455;53.376;-6.262;2023-01-29T04:18:57;102607.75;;;3.28;100.00
28167;BME280;15455;53.376;-6.262;2023-01-29T04:21:49;102607.75;;;3.28;100.00
28167;BME280;15455;53.376;-6.262;2023-01-29T04:24:37;102600.81;;;3.27;100.00
28167;BME280;15455;53.376;-6.262;2023-01-29T04:33:36;102584.91;;;3.05;100.00
28167;BME280;15455;53.376;-6.262;2023-01-29T04:39:43;102588.38;;;2.90;100.00
28167;BME280;15455;53.376;-6.262;2023-01-29T04:42:43;102587.19;;;2.85;100.00
28167;BME280;15455;53.376;-6.262;2023-01-29T04:49:12;102577.66;;;2.84;100.00
28167;BME280;15455;53.376;-6.262;2023-01-29T04:52:00;102566.91;;;2.76;100.00
28167;BME280;15455;53.376;-6.262;2023-01-29T04:55:16;102572.78;;;2.74;100.00
28167;BME280;15455;53.376;-6.262;2023-01-29T05:01:18;102580.50;;;2.74;100.00
28167;BME280;15455;53.376;-6.262;2023-01-29T05:04:10;102573.78;;;2.76;100.00
28167;BME280;15455;53.376;-6.262;2023-01-29T05:07:02;102573.88;;;2.77;100.00
28167;BME280;15455;53.376;-6.262;2023-01-29T05:09:49;102572.25;;;2.80;100.00
28167;BME280;15455;53.376;-6.262;2023-01-29T05:12:36;102569.59;;;2.78;100.00
28167;BME280;15455;53.376;-6.262;2023-01-29T05:15:25;102567.28;;;2.83;100.00
28167;BME280;15455;53.376;-6.262;2023-01-29T05:18:13;102561.16;;;2.81;100.00
28167;BME280;15455;53.376;-6.262;2023-01-29T05:21:01;102558.03;;;2.86;100.00
28167;BME280;15455;53.376;-6.262;2023-01-29T05:24:09;102563.38;;;2.89;100.00
28167;BME280;15455;53.376;-6.262;2023-01-29T05:26:55;102557.59;;;2.93;100.00
28167;BME280;15455;53.376;-6.262;2023-01-29T05:29:59;102542.56;;;3.01;100.00
28167;BME280;15455;53.376;-6.262;2023-01-29T05:32:44;102541.22;;;3.08;100.00
28167;BME280;15455;53.376;-6.262;2023-01-29T05:35:30;102543.97;;;3.11;100.00
28167;BME280;15455;53.376;-6.262;2023-01-29T05:38:17;102538.19;;;3.15;100.00
28167;BME280;15455;53.376;-6.262;2023-01-29T05:41:02;102538.78;;;3.26;100.00
28167;BME280;15455;53.376;-6.262;2023-01-29T05:43:48;102540.91;;;3.33;100.00
28167;BME280;15455;53.376;-6.262;2023-01-29T05:46:33;102534.50;;;3.41;100.00
28167;BME280;15455;53.376;-6.262;2023-01-29T05:49:18;102540.88;;;3.48;100.00
28167;BME280;15455;53.376;-6.262;2023-01-29T05:52:04;102535.25;;;3.55;100.00
28167;BME280;15455;53.376;-6.262;2023-01-29T05:54:50;102527.84;;;3.61;100.00
28167;BME280;15455;53.376;-6.262;2023-01-29T05:57:35;102531.56;;;3.67;100.00
28167;BME280;15455;53.376;-6.262;2023-01-29T06:00:21;102514.63;;;3.72;100.00
28167;BME280;15455;53.376;-6.262;2023-01-29T06:03:07;102518.25;;;3.75;100.00
28167;BME280;15455;53.376;-6.262;2023-01-29T06:05:52;102520.13;;;3.78;100.00
28167;BME280;15455;53.376;-6.262;2023-01-29T06:08:38;102519.41;;;3.80;100.00
28167;BME280;15455;53.376;-6.262;2023-01-29T06:11:24;102526.38;;;3.81;100.00
28167;BME280;15455;53.376;-6.262;2023-01-29T06:14:10;102507.47;;;3.82;100.00
28167;BME280;15455;53.376;-6.262;2023-01-29T06:16:55;102511.75;;;3.82;100.00
28167;BME280;15455;53.376;-6.262;2023-01-29T06:19:40;102509.16;;;3.82;100.00
28167;BME280;15455;53.376;-6.262;2023-01-29T06:22:26;102514.31;;;3.82;100.00
28167;BME280;15455;53.376;-6.262;2023-01-29T06:25:11;102521.19;;;3.81;100.00
28167;BME280;15455;53.376;-6.262;2023-01-29T06:27:57;102515.19;;;3.82;100.00
28167;BME280;15455;53.376;-6.262;2023-01-29T06:30:44;102508.38;;;3.83;100.00
28167;BME280;15455;53.376;-6.262;2023-01-29T06:33:29;102521.34;;;3.85;100.00
28167;BME280;15455;53.376;-6.262;2023-01-29T06:36:15;102516.19;;;3.85;100.00
28167;BME280;15455;53.376;-6.262;2023-01-29T06:39:00;102514.50;;;3.85;100.00
28167;BME280;15455;53.376;-6.262;2023-01-29T06:41:46;102515.38;;;3.86;100.00
28167;BME280;15455;53.376;-6.262;2023-01-29T06:44:31;102517.94;;;3.86;100.00
28167;BME280;15455;53.376;-6.262;2023-01-29T06:47:16;102518.06;;;3.87;100.00
28167;BME280;15455;53.376;-6.262;2023-01-29T06:50:02;102511.97;;;3.87;100.00
28167;BME280;15455;53.376;-6.262;2023-01-29T06:52:48;102516.44;;;3.89;100.00
28167;BME280;15455;53.376;-6.262;2023-01-29T06:55:34;102512.16;;;3.90;100.00
28167;BME280;15455;53.376;-6.262;2023-01-29T06:58:19;102514.88;;;3.93;100.00
28167;BME280;15455;53.376;-6.262;2023-01-29T07:01:06;102508.03;;;3.93;100.00
28167;BME280;15455;53.376;-6.262;2023-01-29T07:03:52;102512.50;;;3.96;100.00
28167;BME280;15455;53.376;-6.262;2023-01-29T07:06:38;102505.63;;;3.96;100.00
28167;BME280;15455;53.376;-6.262;2023-01-29T07:09:23;102505.63;;;3.96;100.00
28167;BME280;15455;53.376;-6.262;2023-01-29T07:12:09;102499.66;;;3.97;100.00
28167;BME280;15455;53.376;-6.262;2023-01-29T07:14:55;102497.94;;;3.98;100.00
28167;BME280;15455;53.376;-6.262;2023-01-29T07:17:40;102495.44;;;3.99;100.00
28167;BME280;15455;53.376;-6.262;2023-01-29T07:20:28;102487.63;;;3.98;100.00
28167;BME280;15455;53.376;-6.262;2023-01-29T07:23:14;102478.09;;;3.97;100.00
28167;BME280;15455;53.376;-6.262;2023-01-29T07:26:01;102473.75;;;3.96;100.00
28167;BME280;15455;53.376;-6.262;2023-01-29T07:28:47;102474.63;;;3.96;100.00
28167;BME280;15455;53.376;-6.262;2023-01-29T07:31:32;102477.13;;;3.95;100.00
28167;BME280;15455;53.376;-6.262;2023-01-29T07:34:18;102474.38;;;3.92;100.00
28167;BME280;15455;53.376;-6.262;2023-01-29T07:37:03;102478.72;;;3.93;100.00
28167;BME280;15455;53.376;-6.262;2023-01-29T07:39:50;102480.66;;;3.97;100.00
28167;BME280;15455;53.376;-6.262;2023-01-29T07:42:37;102477.28;;;3.98;100.00
28167;BME280;15455;53.376;-6.262;2023-01-29T07:45:23;102468.66;;;3.97;100.00
28167;BME280;15455;53.376;-6.262;2023-01-29T07:48:12;102468.75;;;3.99;100.00
28167;BME280;15455;53.376;-6.262;2023-01-29T07:50:57;102462.66;;;3.98;100.00
28167;BME280;15455;53.376;-6.262;2023-01-29T07:53:43;102466.22;;;4.00;100.00
28167;BME280;15455;53.376;-6.262;2023-01-29T07:56:29;102473.25;;;4.03;100.00
28167;BME280;15455;53.376;-6.262;2023-01-29T07:59:14;102459.44;;;4.03;100.00
28167;BME280;15455;53.376;-6.262;2023-01-29T08:02:00;102465.66;;;4.06;100.00
28167;BME280;15455;53.376;-6.262;2023-01-29T08:04:45;102471.78;;;4.08;100.00
28167;BME280;15455;53.376;-6.262;2023-01-29T08:07:31;102464.19;;;4.11;100.00
28167;BME280;15455;53.376;-6.262;2023-01-29T08:10:16;102460.00;;;4.13;100.00
28167;BME280;15455;53.376;-6.262;2023-01-29T08:13:03;102460.97;;;4.15;100.00
28167;BME280;15455;53.376;-6.262;2023-01-29T08:15:49;102469.78;;;4.19;100.00
28167;BME280;15455;53.376;-6.262;2023-01-29T08:18:36;102466.63;;;4.25;100.00
28167;BME280;15455;53.376;-6.262;2023-01-29T08:21:21;102465.88;;;4.27;100.00
28167;BME280;15455;53.376;-6.262;2023-01-29T08:24:07;102463.44;;;4.30;100.00
28167;BME280;15455;53.376;-6.262;2023-01-29T08:26:52;102465.38;;;4.34;100.00
28167;BME280;15455;53.376;-6.262;2023-01-29T08:29:38;102462.94;;;4.38;100.00
28167;BME280;15455;53.376;-6.262;2023-01-29T08:32:23;102469.25;;;4.43;100.00
28167;BME280;15455;53.376;-6.262;2023-01-29T08:35:08;102473.75;;;4.47;100.00
28167;BME280;15455;53.376;-6.262;2023-01-29T08:37:58;102467.88;;;4.49;100.00
28167;BME280;15455;53.376;-6.262;2023-01-29T08:40:44;102473.19;;;4.52;100.00
28167;BME280;15455;53.376;-6.262;2023-01-29T08:43:30;102477.63;;;4.55;100.00
28167;BME280;15455;53.376;-6.262;2023-01-29T08:46:15;102479.44;;;4.58;100.00
28167;BME280;15455;53.376;-6.262;2023-01-29T08:49:01;102480.50;;;4.61;100.00
28167;BME280;15455;53.376;-6.262;2023-01-29T08:51:46;102486.63;;;4.63;100.00
28167;BME280;15455;53.376;-6.262;2023-01-29T08:54:32;102480.72;;;4.66;100.00
28167;BME280;15455;53.376;-6.262;2023-01-29T08:57:17;102473.03;;;4.67;100.00
28167;BME280;15455;53.376;-6.262;2023-01-29T09:00:05;102476.69;;;4.71;100.00
28167;BME280;15455;53.376;-6.262;2023-01-29T09:02:51;102470.75;;;4.74;100.00
28167;BME280;15455;53.376;-6.262;2023-01-29T09:05:38;102470.09;;;4.78;100.00
28167;BME280;15455;53.376;-6.262;2023-01-29T09:08:24;102467.66;;;4.81;100.00
28167;BME280;15455;53.376;-6.262;2023-01-29T09:11:10;102474.69;;;4.83;100.00
28167;BME280;15455;53.376;-6.262;2023-01-29T09:13:55;102478.31;;;4.87;100.00
28167;BME280;15455;53.376;-6.262;2023-01-29T09:16:41;102470.72;;;4.90;100.00
28167;BME280;15455;53.376;-6.262;2023-01-29T09:19:26;102464.88;;;4.94;100.00
28167;BME280;15455;53.376;-6.262;2023-01-29T09:22:11;102466.88;;;5.00;100.00
28167;BME280;15455;53.376;-6.262;2023-01-29T09:24:57;102471.28;;;5.02;100.00
28167;BME280;15455;53.376;-6.262;2023-01-29T09:27:43;102474.06;;;5.06;100.00
28167;BME280;15455;53.376;-6.262;2023-01-29T09:30:28;102473.34;;;5.10;100.00
28167;BME280;15455;53.376;-6.262;2023-01-29T09:33:14;102474.34;;;5.12;100.00
28167;BME280;15455;53.376;-6.262;2023-01-29T09:36:02;102470.19;;;5.15;100.00
28167;BME280;15455;53.376;-6.262;2023-01-29T09:38:47;102455.56;;;5.16;100.00
28167;BME280;15455;53.376;-6.262;2023-01-29T09:41:45;102468.50;;;5.16;100.00
28167;BME280;15455;53.376;-6.262;2023-01-29T09:44:53;102461.69;;;5.18;100.00
28167;BME280;15455;53.376;-6.262;2023-01-29T09:47:42;102467.72;;;5.18;100.00
28167;BME280;15455;53.376;-6.262;2023-01-29T09:50:36;102470.50;;;5.21;100.00
28167;BME280;15455;53.376;-6.262;2023-01-29T09:53:46;102474.03;;;5.24;100.00
28167;BME280;15455;53.376;-6.262;2023-01-29T09:56:36;102472.38;;;5.26;100.00
28167;BME280;15455;53.376;-6.262;2023-01-29T09:59:24;102470.63;;;5.25;100.00
28167;BME280;15455;53.376;-6.262;2023-01-29T10:05:20;102463.81;;;5.27;100.00
28167;BME280;15455;53.376;-6.262;2023-01-29T10:08:22;102459.53;;;5.27;100.00
28167;BME280;15455;53.376;-6.262;2023-01-29T10:14:37;102462.19;;;5.29;100.00
28167;BME280;15455;53.376;-6.262;2023-01-29T10:26:11;102458.25;;;5.37;100.00
28167;BME280;15455;53.376;-6.262;2023-01-29T10:28:58;102455.06;;;5.43;100.00
28167;BME280;15455;53.376;-6.262;2023-01-29T10:31:51;102451.78;;;5.47;100.00
28167;BME280;15455;53.376;-6.262;2023-01-29T10:34:56;102446.69;;;5.48;100.00
28167;BME280;15455;53.376;-6.262;2023-01-29T10:37:44;102448.75;;;5.55;100.00
28167;BME280;15455;53.376;-6.262;2023-01-29T10:40:41;102447.25;;;5.61;100.00
28167;BME280;15455;53.376;-6.262;2023-01-29T11:02:21;102416.09;;;5.79;100.00
28167;BME280;15455;53.376;-6.262;2023-01-29T11:08:15;102413.94;;;5.88;100.00
28167;BME280;15455;53.376;-6.262;2023-01-29T11:11:17;102418.22;;;5.87;100.00
28167;BME280;15455;53.376;-6.262;2023-01-29T11:14:14;102409.63;;;5.88;100.00
28167;BME280;15455;53.376;-6.262;2023-01-29T11:17:01;102414.13;;;5.93;100.00
28167;BME280;15455;53.376;-6.262;2023-01-29T11:19:48;102410.56;;;5.90;100.00
28167;BME280;15455;53.376;-6.262;2023-01-29T11:22:35;102406.28;;;5.91;100.00
28167;BME280;15455;53.376;-6.262;2023-01-29T11:25:21;102395.16;;;5.94;100.00
28167;BME280;15455;53.376;-6.262;2023-01-29T11:28:09;102387.25;;;5.90;100.00
28167;BME280;15455;53.376;-6.262;2023-01-29T11:30:56;102385.63;;;5.93;100.00
28167;BME280;15455;53.376;-6.262;2023-01-29T11:33:42;102377.97;;;5.96;100.00
28167;BME280;15455;53.376;-6.262;2023-01-29T11:36:35;102375.53;;;5.99;100.00
28167;BME280;15455;53.376;-6.262;2023-01-29T11:39:23;102365.31;;;6.02;100.00
28167;BME280;15455;53.376;-6.262;2023-01-29T11:42:18;102369.06;;;6.08;100.00
28167;BME280;15455;53.376;-6.262;2023-01-29T11:45:24;102364.13;;;6.15;100.00
28167;BME280;15455;53.376;-6.262;2023-01-29T11:48:24;102350.00;;;6.29;100.00
28167;BME280;15455;53.376;-6.262;2023-01-29T11:51:20;102346.16;;;6.40;100.00
28167;BME280;15455;53.376;-6.262;2023-01-29T11:54:14;102337.81;;;6.48;100.00
28167;BME280;15455;53.376;-6.262;2023-01-29T11:57:02;102321.78;;;6.58;100.00
28167;BME280;15455;53.376;-6.262;2023-01-29T11:59:49;102312.53;;;6.65;100.00
28167;BME280;15455;53.376;-6.262;2023-01-29T12:02:41;102296.44;;;6.73;100.00
28167;BME280;15455;53.376;-6.262;2023-01-29T12:05:28;102298.50;;;6.82;100.00
28167;BME280;15455;53.376;-6.262;2023-01-29T12:08:16;102297.00;;;6.89;100.00
28167;BME280;15455;53.376;-6.262;2023-01-29T12:11:12;102285.16;;;6.95;100.00
28167;BME280;15455;53.376;-6.262;2023-01-29T12:14:01;102273.34;;;7.04;100.00
28167;BME280;15455;53.376;-6.262;2023-01-29T12:20:17;102259.75;;;7.11;100.00
28167;BME280;15455;53.376;-6.262;2023-01-29T12:23:44;102251.47;;;7.21;100.00
28167;BME280;15455;53.376;-6.262;2023-01-29T12:26:39;102230.94;;;7.29;100.00
28167;BME280;15455;53.376;-6.262;2023-01-29T12:29:39;102225.16;;;7.36;100.00
28167;BME280;15455;53.376;-6.262;2023-01-29T12:32:48;102215.72;;;7.38;100.00
28167;BME280;15455;53.376;-6.262;2023-01-29T12:35:47;102207.34;;;7.47;100.00
28167;BME280;15455;53.376;-6.262;2023-01-29T12:38:34;102212.94;;;7.59;100.00
28167;BME280;15455;53.376;-6.262;2023-01-29T12:41:38;102194.16;;;7.68;100.00
28167;BME280;15455;53.376;-6.262;2023-01-29T12:47:38;102190.56;;;7.90;100.00
28167;BME280;15455;53.376;-6.262;2023-01-29T12:50:33;102177.81;;;7.98;100.00
28167;BME280;15455;53.376;-6.262;2023-01-29T12:53:26;102177.28;;;8.10;100.00
28167;BME280;15455;53.376;-6.262;2023-01-29T12:56:22;102163.69;;;8.18;100.00
28167;BME280;15455;53.376;-6.262;2023-01-29T13:02:37;102157.97;;;8.30;100.00
28167;BME280;15455;53.376;-6.262;2023-01-29T13:05:33;102143.44;;;8.37;100.00
28167;BME280;15455;53.376;-6.262;2023-01-29T13:08:26;102143.66;;;8.45;100.00
28167;BME280;15455;53.376;-6.262;2023-01-29T13:11:36;102122.19;;;8.52;100.00
28167;BME280;15455;53.376;-6.262;2023-01-29T13:14:53;102119.75;;;8.57;100.00
28167;BME280;15455;53.376;-6.262;2023-01-29T13:17:47;102111.47;;;8.72;100.00
28167;BME280;15455;53.376;-6.262;2023-01-29T13:20:36;102097.59;;;8.71;100.00
28167;BME280;15455;53.376;-6.262;2023-01-29T13:23:49;102087.22;;;8.73;100.00
28167;BME280;15455;53.376;-6.262;2023-01-29T13:26:36;102086.31;;;8.72;100.00
28167;BME280;15455;53.376;-6.262;2023-01-29T13:29:24;102073.97;;;8.65;100.00
28167;BME280;15455;53.376;-6.262;2023-01-29T13:32:22;102078.22;;;8.61;100.00
28167;BME280;15455;53.376;-6.262;2023-01-29T13:35:13;102055.63;;;8.60;100.00
28167;BME280;15455;53.376;-6.262;2023-01-29T13:37:59;102063.59;;;8.66;100.00
28167;BME280;15455;53.376;-6.262;2023-01-29T13:40:48;102063.94;;;8.79;100.00
28167;BME280;15455;53.376;-6.262;2023-01-29T13:43:38;102063.56;;;8.98;100.00
28167;BME280;15455;53.376;-6.262;2023-01-29T13:46:25;102042.03;;;9.06;100.00
28167;BME280;15455;53.376;-6.262;2023-01-29T13:49:32;102032.66;;;9.12;100.00
28167;BME280;15455;53.376;-6.262;2023-01-29T14:01:12;102015.31;;;8.78;100.00
28167;BME280;15455;53.376;-6.262;2023-01-29T14:03:58;102002.28;;;8.78;100.00
28167;BME280;15455;53.376;-6.262;2023-01-29T14:06:55;102013.91;;;8.91;100.00
28167;BME280;15455;53.376;-6.262;2023-01-29T14:12:36;101989.72;;;8.95;100.00
28167;BME280;15455;53.376;-6.262;2023-01-29T14:15:28;101977.50;;;8.92;100.00
28167;BME280;15455;53.376;-6.262;2023-01-29T14:18:19;101968.19;;;9.02;100.00
28167;BME280;15455;53.376;-6.262;2023-01-29T14:21:26;101952.69;;;9.08;100.00
28167;BME280;15455;53.376;-6.262;2023-01-29T14:24:21;101940.72;;;9.16;100.00
28167;BME280;15455;53.376;-6.262;2023-01-29T14:27:19;101930.41;;;9.21;100.00
28167;BME280;15455;53.376;-6.262;2023-01-29T14:30:07;101905.28;;;9.23;100.00
28167;BME280;15455;53.376;-6.262;2023-01-29T14:32:54;101906.22;;;9.27;100.00
28167;BME280;15455;53.376;-6.262;2023-01-29T14:35:48;101893.53;;;9.42;100.00
28167;BME280;15455;53.376;-6.262;2023-01-29T14:38:34;101877.28;;;9.55;100.00
28167;BME280;15455;53.376;-6.262;2023-01-29T14:53:33;101882.09;;;9.35;100.00
28167;BME280;15455;53.376;-6.262;2023-01-29T14:56:32;101880.16;;;9.27;100.00
28167;BME280;15455;53.376;-6.262;2023-01-29T14:59:28;101891.38;;;9.23;100.00
28167;BME280;15455;53.376;-6.262;2023-01-29T15:02:18;101903.47;;;9.19;100.00
28167;BME280;15455;53.376;-6.262;2023-01-29T15:05:10;101899.06;;;9.16;100.00
28167;BME280;15455;53.376;-6.262;2023-01-29T15:14:40;101910.19;;;9.09;100.00
28167;BME280;15455;53.376;-6.262;2023-01-29T15:17:35;101890.16;;;9.07;100.00
28167;BME280;15455;53.376;-6.262;2023-01-29T15:20:32;101899.66;;;9.04;100.00
28167;BME280;15455;53.376;-6.262;2023-01-29T15:26:12;101874.28;;;8.94;100.00
28167;BME280;15455;53.376;-6.262;2023-01-29T15:29:01;101866.34;;;8.90;100.00
28167;BME280;15455;53.376;-6.262;2023-01-29T15:31:49;101869.78;;;8.87;100.00
28167;BME280;15455;53.376;-6.262;2023-01-29T15:34:35;101895.91;;;8.92;100.00
28167;BME280;15455;53.376;-6.262;2023-01-29T15:37:29;101907.31;;;8.98;100.00
28167;BME280;15455;53.376;-6.262;2023-01-29T15:40:16;101902.25;;;9.03;100.00
28167;BME280;15455;53.376;-6.262;2023-01-29T15:43:19;101889.25;;;9.04;100.00
28167;BME280;15455;53.376;-6.262;2023-01-29T15:46:06;101891.84;;;9.04;100.00
28167;BME280;15455;53.376;-6.262;2023-01-29T15:48:56;101891.88;;;9.06;100.00
28167;BME280;15455;53.376;-6.262;2023-01-29T15:51:45;101908.47;;;9.11;100.00
28167;BME280;15455;53.376;-6.262;2023-01-29T15:54:32;101901.63;;;9.15;100.00
28167;BME280;15455;53.376;-6.262;2023-01-29T15:57:24;101916.44;;;9.16;100.00
28167;BME280;15455;53.376;-6.262;2023-01-29T16:00:37;101910.34;;;9.17;100.00
28167;BME280;15455;53.376;-6.262;2023-01-29T16:03:26;101914.72;;;9.18;100.00
28167;BME280;15455;53.376;-6.262;2023-01-29T16:06:15;101909.53;;;9.19;100.00
28167;BME280;15455;53.376;-6.262;2023-01-29T16:09:01;101907.81;;;9.20;100.00
28167;BME280;15455;53.376;-6.262;2023-01-29T16:11:48;101909.53;;;9.19;100.00
28167;BME280;15455;53.376;-6.262;2023-01-29T16:14:35;101914.72;;;9.18;100.00
28167;BME280;15455;53.376;-6.262;2023-01-29T16:20:28;101920.69;;;9.14;100.00
28167;BME280;15455;53.376;-6.262;2023-01-29T16:23:18;101914.63;;;9.13;100.00
28167;BME280;15455;53.376;-6.262;2023-01-29T16:26:08;101898.06;;;9.11;100.00
28167;BME280;15455;53.376;-6.262;2023-01-29T16:29:03;101895.41;;;9.08;100.00
28167;BME280;15455;53.376;-6.262;2023-01-29T16:31:51;101899.66;;;9.04;100.00
28167;BME280;15455;53.376;-6.262;2023-01-29T16:34:43;101881.41;;;9.03;100.00
28167;BME280;15455;53.376;-6.262;2023-01-29T16:37:32;101868.34;;;9.00;100.00
28167;BME280;15455;53.376;-6.262;2023-01-29T16:40:38;101874.34;;;8.97;100.00
28167;BME280;15455;53.376;-6.262;2023-01-29T16:46:44;101866.56;;;8.99;100.00
28167;BME280;15455;53.376;-6.262;2023-01-29T16:52:21;101840.47;;;8.96;100.00
28167;BME280;15455;53.376;-6.262;2023-01-29T16:57:55;101837.69;;;8.90;100.00